sensor_id;sensor_type;location;lat;lon;timestamp;pressure;altitude;pressure_sealevel;temperature
34807;BMP280;18310;55.586;12.286;2023-07-02T00:02:42;99857.44;;;22.29
34807;BMP280;18310;55.586;12.286;2023-07-02T00:05:45;99850.91;;;22.14
34807;BMP280;18310;55.586;12.286;2023-07-02T00:08:49;99855.81;;;22.10
34807;BMP280;18310;55.586;12.286;2023-07-02T00:11:52;99856.41;;;22.05
34807;BMP280;18310;55.586;12.286;2023-07-02T00:14:56;99849.28;;;21.95
34807;BMP280;18310;55.586;12.286;2023-07-02T00:17:59;99849.53;;;21.88
34807;BMP280;18310;55.586;12.286;2023-07-02T00:21:03;99840.38;;;21.78
34807;BMP280;18310;55.586;12.286;2023-07-02T00:24:06;99849.59;;;21.75
34807;BMP280;18310;55.586;12.286;2023-07-02T00:27:11;99849.53;;;21.66
34807;BMP280;18310;55.586;12.286;2023-07-02T00:30:16;99840.28;;;21.60
34807;BMP280;18310;55.586;12.286;2023-07-02T00:33:19;99836.97;;;21.52
34807;BMP280;18310;55.586;12.286;2023-07-02T00:36:22;99834.78;;;21.47
34807;BMP280;18310;55.586;12.286;2023-07-02T00:39:25;99832.94;;;21.44
34807;BMP280;18310;55.586;12.286;2023-07-02T00:42:29;99830.28;;;21.41
34807;BMP280;18310;55.586;12.286;2023-07-02T00:45:33;99836.72;;;21.38
34807;BMP280;18310;55.586;12.286;2023-07-02T00:48:38;99830.50;;;21.34
34807;BMP280;18310;55.586;12.286;2023-07-02T00:51:41;99835.88;;;21.28
34807;BMP280;18310;55.586;12.286;2023-07-02T00:54:45;99826.56;;;21.22
34807;BMP280;18310;55.586;12.286;2023-07-02T00:57:48;99823.66;;;21.17
34807;BMP280;18310;55.586;12.286;2023-07-02T01:00:53;99830.38;;;21.15
34807;BMP280;18310;55.586;12.286;2023-07-02T01:03:59;99834.06;;;21.12
34807;BMP280;18310;55.586;12.286;2023-07-02T01:07:03;99826.19;;;21.11
34807;BMP280;18310;55.586;12.286;2023-07-02T01:10:11;99821.22;;;21.06
34807;BMP280;18310;55.586;12.286;2023-07-02T01:13:17;99818.78;;;21.08
34807;BMP280;18310;55.586;12.286;2023-07-02T01:16:23;99827.06;;;21.08
34807;BMP280;18310;55.586;12.286;2023-07-02T01:19:41;99826.31;;;21.07
34807;BMP280;18310;55.586;12.286;2023-07-02T01:22:45;99790.94;;;20.90
34807;BMP280;18310;55.586;12.286;2023-07-02T01:25:51;99820.31;;;21.09
34807;BMP280;18310;55.586;12.286;2023-07-02T01:28:54;99819.09;;;21.10
34807;BMP280;18310;55.586;12.286;2023-07-02T01:31:57;99815.53;;;21.09
34807;BMP280;18310;55.586;12.286;2023-07-02T01:35:03;99806.81;;;21.11
34807;BMP280;18310;55.586;12.286;2023-07-02T01:38:06;99811.13;;;21.12
34807;BMP280;18310;55.586;12.286;2023-07-02T01:41:09;99816.56;;;21.15
34807;BMP280;18310;55.586;12.286;2023-07-02T01:44:13;99805.03;;;21.17
34807;BMP280;18310;55.586;12.286;2023-07-02T01:47:16;99797.03;;;21.19
34807;BMP280;18310;55.586;12.286;2023-07-02T01:50:23;99801.34;;;21.20
34807;BMP280;18310;55.586;12.286;2023-07-02T01:53:26;99802.88;;;21.21
34807;BMP280;18310;55.586;12.286;2023-07-02T01:56:29;99811.19;;;21.21
34807;BMP280;18310;55.586;12.286;2023-07-02T01:59:32;99810.56;;;21.17
34807;BMP280;18310;55.586;12.286;2023-07-02T02:02:35;99812.09;;;21.18
34807;BMP280;18310;55.586;12.286;2023-07-02T02:05:40;99806.81;;;21.11
34807;BMP280;18310;55.586;12.286;2023-07-02T02:08:43;99805.34;;;21.19
34807;BMP280;18310;55.586;12.286;2023-07-02T02:11:48;99814.41;;;21.20
34807;BMP280;18310;55.586;12.286;2023-07-02T02:14:51;99805.34;;;21.19
34807;BMP280;18310;55.586;12.286;2023-07-02T02:17:55;99801.50;;;21.17
34807;BMP280;18310;55.586;12.286;2023-07-02T02:20:59;99807.03;;;21.17
34807;BMP280;18310;55.586;12.286;2023-07-02T02:24:02;99797.63;;;21.14
34807;BMP280;18310;55.586;12.286;2023-07-02T02:27:05;99798.09;;;21.12
34807;BMP280;18310;55.586;12.286;2023-07-02T02:30:09;99803.28;;;21.10
34807;BMP280;18310;55.586;12.286;2023-07-02T02:33:12;99810.47;;;21.08
34807;BMP280;18310;55.586;12.286;2023-07-02T02:36:16;99804.63;;;21.06
34807;BMP280;18310;55.586;12.286;2023-07-02T02:39:20;99801.66;;;21.00
34807;BMP280;18310;55.586;12.286;2023-07-02T02:42:24;99804.97;;;20.95
34807;BMP280;18310;55.586;12.286;2023-07-02T02:45:27;99813.06;;;20.90
34807;BMP280;18310;55.586;12.286;2023-07-02T02:48:31;99811.19;;;20.87
34807;BMP280;18310;55.586;12.286;2023-07-02T02:51:35;99813.50;;;20.88
34807;BMP280;18310;55.586;12.286;2023-07-02T02:54:38;99804.78;;;20.90
34807;BMP280;18310;55.586;12.286;2023-07-02T02:57:42;99810.19;;;20.93
34807;BMP280;18310;55.586;12.286;2023-07-02T03:00:45;99807.75;;;20.95
34807;BMP280;18310;55.586;12.286;2023-07-02T03:03:49;99803.53;;;21.03
34807;BMP280;18310;55.586;12.286;2023-07-02T03:06:54;99810.00;;;21.09
34807;BMP280;18310;55.586;12.286;2023-07-02T03:09:58;99789.00;;;21.12
34807;BMP280;18310;55.586;12.286;2023-07-02T03:13:01;99797.03;;;21.19
34807;BMP280;18310;55.586;12.286;2023-07-02T03:16:04;99796.00;;;21.26
34807;BMP280;18310;55.586;12.286;2023-07-02T03:19:08;99803.31;;;21.32
34807;BMP280;18310;55.586;12.286;2023-07-02T03:22:12;99803.06;;;21.39
34807;BMP280;18310;55.586;12.286;2023-07-02T03:25:15;99791.53;;;21.41
34807;BMP280;18310;55.586;12.286;2023-07-02T03:28:18;99787.06;;;21.43
34807;BMP280;18310;55.586;12.286;2023-07-02T03:31:22;99793.91;;;21.51
34807;BMP280;18310;55.586;12.286;2023-07-02T03:34:25;99804.41;;;21.56
34807;BMP280;18310;55.586;12.286;2023-07-02T03:37:29;99803.03;;;21.61
34807;BMP280;18310;55.586;12.286;2023-07-02T03:40:33;99795.84;;;21.63
34807;BMP280;18310;55.586;12.286;2023-07-02T03:43:37;99806.44;;;21.65
34807;BMP280;18310;55.586;12.286;2023-07-02T03:46:40;99808.44;;;21.64
34807;BMP280;18310;55.586;12.286;2023-07-02T03:49:44;99808.31;;;21.68
34807;BMP280;18310;55.586;12.286;2023-07-02T03:52:49;99799.69;;;21.66
34807;BMP280;18310;55.586;12.286;2023-07-02T03:55:52;99788.16;;;21.67
34807;BMP280;18310;55.586;12.286;2023-07-02T03:58:55;99791.25;;;21.69
34807;BMP280;18310;55.586;12.286;2023-07-02T04:01:58;99797.13;;;21.71
34807;BMP280;18310;55.586;12.286;2023-07-02T04:05:02;99795.44;;;21.74
34807;BMP280;18310;55.586;12.286;2023-07-02T04:08:07;99792.06;;;21.79
34807;BMP280;18310;55.586;12.286;2023-07-02T04:11:11;99800.25;;;21.83
34807;BMP280;18310;55.586;12.286;2023-07-02T04:14:14;99791.50;;;21.84
34807;BMP280;18310;55.586;12.286;2023-07-02T04:17:17;99800.44;;;21.88
34807;BMP280;18310;55.586;12.286;2023-07-02T04:20:20;99801.53;;;21.91
34807;BMP280;18310;55.586;12.286;2023-07-02T04:23:25;99802.31;;;21.91
34807;BMP280;18310;55.586;12.286;2023-07-02T04:26:28;99812.53;;;22.03
34807;BMP280;18310;55.586;12.286;2023-07-02T04:29:53;99808.59;;;22.22
34807;BMP280;18310;55.586;12.286;2023-07-02T04:32:56;99815.03;;;22.68
34807;BMP280;18310;55.586;12.286;2023-07-02T04:35:59;99811.06;;;23.15
34807;BMP280;18310;55.586;12.286;2023-07-02T04:39:04;99805.75;;;23.71
34807;BMP280;18310;55.586;12.286;2023-07-02T04:42:07;99809.22;;;24.32
34807;BMP280;18310;55.586;12.286;2023-07-02T04:45:11;99805.66;;;24.79
34807;BMP280;18310;55.586;12.286;2023-07-02T04:48:16;99797.22;;;25.41
34807;BMP280;18310;55.586;12.286;2023-07-02T04:51:20;99800.78;;;25.90
34807;BMP280;18310;55.586;12.286;2023-07-02T04:54:24;99801.72;;;26.37
34807;BMP280;18310;55.586;12.286;2023-07-02T04:57:27;99800.09;;;26.71
34807;BMP280;18310;55.586;12.286;2023-07-02T05:00:31;99796.63;;;26.55
34807;BMP280;18310;55.586;12.286;2023-07-02T05:03:34;99809.16;;;26.45
34807;BMP280;18310;55.586;12.286;2023-07-02T05:06:37;99801.09;;;26.27
34807;BMP280;18310;55.586;12.286;2023-07-02T05:09:43;99805.09;;;26.06
34807;BMP280;18310;55.586;12.286;2023-07-02T05:12:46;99814.81;;;26.11
34807;BMP280;18310;55.586;12.286;2023-07-02T05:15:49;99807.44;;;26.28
34807;BMP280;18310;55.586;12.286;2023-07-02T05:18:52;99818.41;;;26.31
34807;BMP280;18310;55.586;12.286;2023-07-02T05:21:55;99801.03;;;26.62
34807;BMP280;18310;55.586;12.286;2023-07-02T05:25:00;99817.50;;;27.06
34807;BMP280;18310;55.586;12.286;2023-07-02T05:28:03;99810.25;;;26.94
34807;BMP280;18310;55.586;12.286;2023-07-02T05:31:06;99809.97;;;26.92
34807;BMP280;18310;55.586;12.286;2023-07-02T05:34:10;99816.25;;;27.07
34807;BMP280;18310;55.586;12.286;2023-07-02T05:37:13;99808.94;;;27.41
34807;BMP280;18310;55.586;12.286;2023-07-02T05:40:17;99814.38;;;27.86
34807;BMP280;18310;55.586;12.286;2023-07-02T05:43:20;99816.69;;;28.36
34807;BMP280;18310;55.586;12.286;2023-07-02T05:46:23;99815.81;;;28.72
34807;BMP280;18310;55.586;12.286;2023-07-02T05:49:27;99813.84;;;29.00
34807;BMP280;18310;55.586;12.286;2023-07-02T05:52:30;99822.41;;;28.75
34807;BMP280;18310;55.586;12.286;2023-07-02T05:55:34;99823.41;;;28.61
34807;BMP280;18310;55.586;12.286;2023-07-02T05:58:41;99825.38;;;28.38
34807;BMP280;18310;55.586;12.286;2023-07-02T06:01:49;99820.06;;;28.56
34807;BMP280;18310;55.586;12.286;2023-07-02T06:04:52;99821.16;;;28.76
34807;BMP280;18310;55.586;12.286;2023-07-02T06:07:56;99824.28;;;29.05
34807;BMP280;18310;55.586;12.286;2023-07-02T06:11:00;99820.50;;;29.19
34807;BMP280;18310;55.586;12.286;2023-07-02T06:14:03;99828.41;;;29.43
34807;BMP280;18310;55.586;12.286;2023-07-02T06:17:07;99829.16;;;29.60
34807;BMP280;18310;55.586;12.286;2023-07-02T06:20:11;99831.91;;;29.88
34807;BMP280;18310;55.586;12.286;2023-07-02T06:23:15;99829.28;;;30.23
34807;BMP280;18310;55.586;12.286;2023-07-02T06:26:19;99837.59;;;30.45
34807;BMP280;18310;55.586;12.286;2023-07-02T06:29:23;99839.94;;;30.30
34807;BMP280;18310;55.586;12.286;2023-07-02T06:32:26;99833.63;;;30.02
34807;BMP280;18310;55.586;12.286;2023-07-02T06:35:29;99828.59;;;29.84
34807;BMP280;18310;55.586;12.286;2023-07-02T06:38:32;99829.41;;;29.35
34807;BMP280;18310;55.586;12.286;2023-07-02T06:41:40;99846.47;;;29.03
34807;BMP280;18310;55.586;12.286;2023-07-02T06:44:43;99839.53;;;28.82
34807;BMP280;18310;55.586;12.286;2023-07-02T06:47:46;99841.44;;;28.54
34807;BMP280;18310;55.586;12.286;2023-07-02T06:51:13;99845.84;;;28.13
34807;BMP280;18310;55.586;12.286;2023-07-02T06:54:16;99837.66;;;28.51
34807;BMP280;18310;55.586;12.286;2023-07-02T06:57:19;99834.72;;;28.99
34807;BMP280;18310;55.586;12.286;2023-07-02T07:00:23;99843.19;;;29.49
34807;BMP280;18310;55.586;12.286;2023-07-02T07:03:26;99842.66;;;29.51
34807;BMP280;18310;55.586;12.286;2023-07-02T07:06:31;99847.50;;;29.56
34807;BMP280;18310;55.586;12.286;2023-07-02T07:09:34;99848.19;;;30.06
34807;BMP280;18310;55.586;12.286;2023-07-02T07:12:37;99859.75;;;29.75
34807;BMP280;18310;55.586;12.286;2023-07-02T07:15:41;99849.75;;;29.96
34807;BMP280;18310;55.586;12.286;2023-07-02T07:18:44;99856.88;;;30.03
34807;BMP280;18310;55.586;12.286;2023-07-02T07:21:49;99845.06;;;30.26
34807;BMP280;18310;55.586;12.286;2023-07-02T07:24:52;99853.84;;;30.01
34807;BMP280;18310;55.586;12.286;2023-07-02T07:27:55;99843.69;;;29.75
34807;BMP280;18310;55.586;12.286;2023-07-02T07:30:58;99853.09;;;29.45
34807;BMP280;18310;55.586;12.286;2023-07-02T07:34:01;99849.47;;;28.89
34807;BMP280;18310;55.586;12.286;2023-07-02T07:37:06;99847.38;;;28.67
34807;BMP280;18310;55.586;12.286;2023-07-02T07:40:10;99839.69;;;28.56
34807;BMP280;18310;55.586;12.286;2023-07-02T07:43:14;99842.06;;;28.21
34807;BMP280;18310;55.586;12.286;2023-07-02T07:46:17;99845.22;;;27.98
34807;BMP280;18310;55.586;12.286;2023-07-02T07:49:23;99847.28;;;27.66
34807;BMP280;18310;55.586;12.286;2023-07-02T07:52:28;99849.88;;;27.44
34807;BMP280;18310;55.586;12.286;2023-07-02T07:55:31;99851.81;;;27.32
34807;BMP280;18310;55.586;12.286;2023-07-02T07:58:34;99838.09;;;27.34
34807;BMP280;18310;55.586;12.286;2023-07-02T08:01:38;99843.50;;;27.43
34807;BMP280;18310;55.586;12.286;2023-07-02T08:04:41;99835.41;;;27.45
34807;BMP280;18310;55.586;12.286;2023-07-02T08:07:46;99839.25;;;27.48
34807;BMP280;18310;55.586;12.286;2023-07-02T08:10:49;99837.06;;;27.57
34807;BMP280;18310;55.586;12.286;2023-07-02T08:13:53;99847.06;;;27.69
34807;BMP280;18310;55.586;12.286;2023-07-02T08:16:56;99840.81;;;27.85
34807;BMP280;18310;55.586;12.286;2023-07-02T08:19:59;99839.41;;;28.01
34807;BMP280;18310;55.586;12.286;2023-07-02T08:23:04;99826.22;;;28.07
34807;BMP280;18310;55.586;12.286;2023-07-02T08:26:07;99832.09;;;28.15
34807;BMP280;18310;55.586;12.286;2023-07-02T08:29:35;99842.28;;;28.18
34807;BMP280;18310;55.586;12.286;2023-07-02T08:32:38;99857.31;;;28.20
34807;BMP280;18310;55.586;12.286;2023-07-02T08:35:42;99848.97;;;28.26
34807;BMP280;18310;55.586;12.286;2023-07-02T08:38:45;99839.53;;;28.23
34807;BMP280;18310;55.586;12.286;2023-07-02T08:41:48;99843.53;;;28.11
34807;BMP280;18310;55.586;12.286;2023-07-02T08:44:54;99833.09;;;28.12
34807;BMP280;18310;55.586;12.286;2023-07-02T08:47:57;99852.22;;;28.19
34807;BMP280;18310;55.586;12.286;2023-07-02T08:51:02;99858.84;;;28.21
34807;BMP280;18310;55.586;12.286;2023-07-02T08:54:05;99848.91;;;28.20
34807;BMP280;18310;55.586;12.286;2023-07-02T08:57:09;99855.97;;;28.05
34807;BMP280;18310;55.586;12.286;2023-07-02T09:00:14;99861.03;;;28.01
34807;BMP280;18310;55.586;12.286;2023-07-02T09:03:18;99867.28;;;27.90
34807;BMP280;18310;55.586;12.286;2023-07-02T09:06:21;99860.97;;;27.95
34807;BMP280;18310;55.586;12.286;2023-07-02T09:09:26;99861.22;;;27.92
34807;BMP280;18310;55.586;12.286;2023-07-02T09:12:30;99865.47;;;27.81
34807;BMP280;18310;55.586;12.286;2023-07-02T09:15:39;99864.09;;;27.71
34807;BMP280;18310;55.586;12.286;2023-07-02T09:18:42;99871.19;;;27.67
34807;BMP280;18310;55.586;12.286;2023-07-02T09:21:47;99863.19;;;27.80
34807;BMP280;18310;55.586;12.286;2023-07-02T09:24:54;99852.28;;;27.56
34807;BMP280;18310;55.586;12.286;2023-07-02T09:27:59;99859.34;;;27.52
34807;BMP280;18310;55.586;12.286;2023-07-02T09:31:04;99839.84;;;27.57
34807;BMP280;18310;55.586;12.286;2023-07-02T09:34:08;99869.09;;;27.62
34807;BMP280;18310;55.586;12.286;2023-07-02T09:37:14;99907.22;;;27.59
34807;BMP280;18310;55.586;12.286;2023-07-02T09:40:17;99939.50;;;27.14
34807;BMP280;18310;55.586;12.286;2023-07-02T09:43:24;99930.66;;;26.61
34807;BMP280;18310;55.586;12.286;2023-07-02T09:46:29;99935.06;;;25.98
34807;BMP280;18310;55.586;12.286;2023-07-02T09:49:34;99928.47;;;25.57
34807;BMP280;18310;55.586;12.286;2023-07-02T09:52:37;99931.94;;;25.14
34807;BMP280;18310;55.586;12.286;2023-07-02T09:55:42;99930.78;;;24.97
34807;BMP280;18310;55.586;12.286;2023-07-02T09:58:46;99937.50;;;24.90
34807;BMP280;18310;55.586;12.286;2023-07-02T10:01:50;99940.81;;;24.80
34807;BMP280;18310;55.586;12.286;2023-07-02T10:04:54;99942.19;;;24.75
34807;BMP280;18310;55.586;12.286;2023-07-02T10:08:11;99940.63;;;24.59
34807;BMP280;18310;55.586;12.286;2023-07-02T10:11:15;99937.81;;;24.50
34807;BMP280;18310;55.586;12.286;2023-07-02T10:14:18;99936.16;;;24.44
34807;BMP280;18310;55.586;12.286;2023-07-02T10:17:27;99937.31;;;24.28
34807;BMP280;18310;55.586;12.286;2023-07-02T10:20:32;99930.88;;;24.22
34807;BMP280;18310;55.586;12.286;2023-07-02T10:23:36;99924.66;;;24.27
34807;BMP280;18310;55.586;12.286;2023-07-02T10:26:51;99928.50;;;24.39
34807;BMP280;18310;55.586;12.286;2023-07-02T10:29:55;99916.50;;;24.56
34807;BMP280;18310;55.586;12.286;2023-07-02T10:33:08;99918.44;;;24.65
34807;BMP280;18310;55.586;12.286;2023-07-02T10:36:18;99908.06;;;24.75
34807;BMP280;18310;55.586;12.286;2023-07-02T10:39:22;99905.31;;;24.89
34807;BMP280;18310;55.586;12.286;2023-07-02T10:42:25;99905.56;;;25.00
34807;BMP280;18310;55.586;12.286;2023-07-02T10:45:34;99920.25;;;25.24
34807;BMP280;18310;55.586;12.286;2023-07-02T10:48:38;99919.75;;;25.26
34807;BMP280;18310;55.586;12.286;2023-07-02T10:51:45;99921.41;;;25.33
34807;BMP280;18310;55.586;12.286;2023-07-02T10:54:48;99918.25;;;25.40
34807;BMP280;18310;55.586;12.286;2023-07-02T10:58:03;99912.31;;;25.47
34807;BMP280;18310;55.586;12.286;2023-07-02T11:01:06;99933.56;;;25.59
34807;BMP280;18310;55.586;12.286;2023-07-02T11:04:14;99927.22;;;25.73
34807;BMP280;18310;55.586;12.286;2023-07-02T11:07:22;99926.88;;;25.95
34807;BMP280;18310;55.586;12.286;2023-07-02T11:10:25;99942.06;;;26.08
34807;BMP280;18310;55.586;12.286;2023-07-02T11:13:29;99938.38;;;26.17
34807;BMP280;18310;55.586;12.286;2023-07-02T11:19:07;99933.38;;;26.06
34807;BMP280;18310;55.586;12.286;2023-07-02T11:22:11;99935.06;;;25.98
34807;BMP280;18310;55.586;12.286;2023-07-02T11:25:15;99954.81;;;26.00
34807;BMP280;18310;55.586;12.286;2023-07-02T11:28:19;99991.59;;;25.99
34807;BMP280;18310;55.586;12.286;2023-07-02T11:31:25;99995.53;;;25.54
34807;BMP280;18310;55.586;12.286;2023-07-02T11:34:33;99975.09;;;25.09
34807;BMP280;18310;55.586;12.286;2023-07-02T11:37:36;99987.91;;;24.59
34807;BMP280;18310;55.586;12.286;2023-07-02T11:40:39;99998.69;;;24.06
34807;BMP280;18310;55.586;12.286;2023-07-02T11:43:42;99977.56;;;23.73
34807;BMP280;18310;55.586;12.286;2023-07-02T11:46:45;99987.72;;;23.48
34807;BMP280;18310;55.586;12.286;2023-07-02T11:49:51;99988.69;;;23.45
34807;BMP280;18310;55.586;12.286;2023-07-02T11:52:54;99993.59;;;23.51
34807;BMP280;18310;55.586;12.286;2023-07-02T11:55:57;99986.06;;;23.60
34807;BMP280;18310;55.586;12.286;2023-07-02T11:59:00;99993.78;;;23.56
34807;BMP280;18310;55.586;12.286;2023-07-02T12:02:06;99994.09;;;23.67
34807;BMP280;18310;55.586;12.286;2023-07-02T12:05:10;99982.50;;;23.78
34807;BMP280;18310;55.586;12.286;2023-07-02T12:08:14;99979.13;;;23.92
34807;BMP280;18310;55.586;12.286;2023-07-02T12:11:17;99981.56;;;23.99
34807;BMP280;18310;55.586;12.286;2023-07-02T12:14:20;99971.16;;;24.27
34807;BMP280;18310;55.586;12.286;2023-07-02T12:17:23;99980.44;;;24.24
34807;BMP280;18310;55.586;12.286;2023-07-02T12:20:28;99969.09;;;24.45
34807;BMP280;18310;55.586;12.286;2023-07-02T12:23:32;99964.44;;;24.60
34807;BMP280;18310;55.586;12.286;2023-07-02T12:26:35;99973.16;;;25.01
34807;BMP280;18310;55.586;12.286;2023-07-02T12:29:38;99981.19;;;25.22
34807;BMP280;18310;55.586;12.286;2023-07-02T12:32:41;99953.25;;;25.55
34807;BMP280;18310;55.586;12.286;2023-07-02T12:35:46;99989.84;;;25.72
34807;BMP280;18310;55.586;12.286;2023-07-02T12:38:50;99983.81;;;25.88
34807;BMP280;18310;55.586;12.286;2023-07-02T12:41:53;99983.41;;;26.10
34807;BMP280;18310;55.586;12.286;2023-07-02T12:44:56;100001.19;;;26.12
34807;BMP280;18310;55.586;12.286;2023-07-02T12:47:59;100014.88;;;26.10
34807;BMP280;18310;55.586;12.286;2023-07-02T12:51:04;100000.75;;;25.99
34807;BMP280;18310;55.586;12.286;2023-07-02T12:54:07;100006.00;;;25.82
34807;BMP280;18310;55.586;12.286;2023-07-02T12:57:10;100001.63;;;25.67
34807;BMP280;18310;55.586;12.286;2023-07-02T13:00:13;100022.41;;;25.66
34807;BMP280;18310;55.586;12.286;2023-07-02T13:03:17;100010.13;;;25.72
34807;BMP280;18310;55.586;12.286;2023-07-02T13:06:24;100013.19;;;25.74
34807;BMP280;18310;55.586;12.286;2023-07-02T13:09:27;100018.94;;;25.71
34807;BMP280;18310;55.586;12.286;2023-07-02T13:12:30;100026.63;;;25.61
34807;BMP280;18310;55.586;12.286;2023-07-02T13:15:33;100025.91;;;25.75
34807;BMP280;18310;55.586;12.286;2023-07-02T13:18:37;100016.50;;;25.87
34807;BMP280;18310;55.586;12.286;2023-07-02T13:21:42;100018.50;;;25.87
34807;BMP280;18310;55.586;12.286;2023-07-02T13:24:45;100038.59;;;25.91
34807;BMP280;18310;55.586;12.286;2023-07-02T13:27:48;100030.72;;;26.04
34807;BMP280;18310;55.586;12.286;2023-07-02T13:30:51;100034.41;;;26.10
34807;BMP280;18310;55.586;12.286;2023-07-02T13:33:54;100034.38;;;25.96
34807;BMP280;18310;55.586;12.286;2023-07-02T13:36:58;100054.25;;;25.88
34807;BMP280;18310;55.586;12.286;2023-07-02T13:40:05;100046.38;;;25.87
34807;BMP280;18310;55.586;12.286;2023-07-02T13:43:12;100060.13;;;25.76
34807;BMP280;18310;55.586;12.286;2023-07-02T13:46:15;100051.69;;;25.85
34807;BMP280;18310;55.586;12.286;2023-07-02T13:49:18;100068.91;;;25.98
34807;BMP280;18310;55.586;12.286;2023-07-02T13:52:24;100066.53;;;26.20
34807;BMP280;18310;55.586;12.286;2023-07-02T13:55:27;100056.94;;;26.21
34807;BMP280;18310;55.586;12.286;2023-07-02T13:59:00;100059.16;;;26.32
34807;BMP280;18310;55.586;12.286;2023-07-02T14:02:05;100091.16;;;26.36
34807;BMP280;18310;55.586;12.286;2023-07-02T14:05:08;100072.50;;;26.28
34807;BMP280;18310;55.586;12.286;2023-07-02T14:08:11;100076.63;;;26.32
34807;BMP280;18310;55.586;12.286;2023-07-02T14:11:14;100064.31;;;26.24
34807;BMP280;18310;55.586;12.286;2023-07-02T14:14:19;100086.56;;;26.33
34807;BMP280;18310;55.586;12.286;2023-07-02T14:17:22;100110.22;;;26.38
34807;BMP280;18310;55.586;12.286;2023-07-02T14:20:28;100096.88;;;26.04
34807;BMP280;18310;55.586;12.286;2023-07-02T14:23:31;100112.31;;;25.52
34807;BMP280;18310;55.586;12.286;2023-07-02T14:26:34;100112.13;;;25.22
34807;BMP280;18310;55.586;12.286;2023-07-02T14:29:38;100114.09;;;25.07
34807;BMP280;18310;55.586;12.286;2023-07-02T14:32:41;100106.81;;;25.01
34807;BMP280;18310;55.586;12.286;2023-07-02T14:35:46;100117.03;;;25.04
34807;BMP280;18310;55.586;12.286;2023-07-02T14:38:50;100116.13;;;24.98
34807;BMP280;18310;55.586;12.286;2023-07-02T14:41:53;100098.88;;;24.85
34807;BMP280;18310;55.586;12.286;2023-07-02T14:44:57;100100.97;;;24.90
34807;BMP280;18310;55.586;12.286;2023-07-02T14:48:00;100089.56;;;24.79
34807;BMP280;18310;55.586;12.286;2023-07-02T14:51:04;100078.59;;;24.75
34807;BMP280;18310;55.586;12.286;2023-07-02T14:54:07;100087.25;;;24.77
34807;BMP280;18310;55.586;12.286;2023-07-02T14:57:10;100094.84;;;24.77
34807;BMP280;18310;55.586;12.286;2023-07-02T15:00:15;100106.41;;;24.93
34807;BMP280;18310;55.586;12.286;2023-07-02T15:03:20;100094.28;;;24.96
34807;BMP280;18310;55.586;12.286;2023-07-02T15:06:24;100089.97;;;24.95
34807;BMP280;18310;55.586;12.286;2023-07-02T15:09:31;100098.00;;;25.02
34807;BMP280;18310;55.586;12.286;2023-07-02T15:12:34;100109.00;;;24.97
34807;BMP280;18310;55.586;12.286;2023-07-02T15:15:38;100122.91;;;24.97
34807;BMP280;18310;55.586;12.286;2023-07-02T15:18:42;100114.91;;;24.90
34807;BMP280;18310;55.586;12.286;2023-07-02T15:21:45;100097.91;;;24.79
34807;BMP280;18310;55.586;12.286;2023-07-02T15:24:49;100120.19;;;24.79
34807;BMP280;18310;55.586;12.286;2023-07-02T15:27:52;100123.16;;;24.84
34807;BMP280;18310;55.586;12.286;2023-07-02T15:30:59;100102.88;;;24.84
34807;BMP280;18310;55.586;12.286;2023-07-02T15:34:02;100106.25;;;24.88
34807;BMP280;18310;55.586;12.286;2023-07-02T15:37:06;100096.91;;;25.00
34807;BMP280;18310;55.586;12.286;2023-07-02T15:40:10;100096.91;;;25.00
34807;BMP280;18310;55.586;12.286;2023-07-02T15:43:13;100108.88;;;24.91
34807;BMP280;18310;55.586;12.286;2023-07-02T15:46:18;100123.75;;;24.88
34807;BMP280;18310;55.586;12.286;2023-07-02T15:49:24;100162.56;;;24.83
34807;BMP280;18310;55.586;12.286;2023-07-02T15:52:27;100167.72;;;24.39
34807;BMP280;18310;55.586;12.286;2023-07-02T15:55:30;100163.81;;;24.00
34807;BMP280;18310;55.586;12.286;2023-07-02T15:58:33;100148.63;;;23.65
34807;BMP280;18310;55.586;12.286;2023-07-02T16:01:39;100148.41;;;23.50
34807;BMP280;18310;55.586;12.286;2023-07-02T16:05:05;100144.16;;;23.36
34807;BMP280;18310;55.586;12.286;2023-07-02T16:08:09;100137.63;;;23.21
34807;BMP280;18310;55.586;12.286;2023-07-02T16:11:13;100135.13;;;23.14
34807;BMP280;18310;55.586;12.286;2023-07-02T16:14:17;100139.88;;;23.14
34807;BMP280;18310;55.586;12.286;2023-07-02T16:17:23;100136.19;;;23.08
34807;BMP280;18310;55.586;12.286;2023-07-02T16:20:28;100136.22;;;23.17
34807;BMP280;18310;55.586;12.286;2023-07-02T16:23:31;100141.44;;;23.15
34807;BMP280;18310;55.586;12.286;2023-07-02T16:26:36;100135.75;;;23.09
34807;BMP280;18310;55.586;12.286;2023-07-02T16:29:40;100143.31;;;23.18
34807;BMP280;18310;55.586;12.286;2023-07-02T16:32:43;100145.53;;;23.23
34807;BMP280;18310;55.586;12.286;2023-07-02T16:35:48;100128.56;;;23.21
34807;BMP280;18310;55.586;12.286;2023-07-02T16:38:51;100146.94;;;23.36
34807;BMP280;18310;55.586;12.286;2023-07-02T16:41:54;100149.91;;;23.42
34807;BMP280;18310;55.586;12.286;2023-07-02T16:44:58;100185.13;;;23.45
34807;BMP280;18310;55.586;12.286;2023-07-02T16:48:32;100214.91;;;23.44
34807;BMP280;18310;55.586;12.286;2023-07-02T16:51:38;100197.75;;;23.15
34807;BMP280;18310;55.586;12.286;2023-07-02T16:54:48;100189.50;;;22.81
34807;BMP280;18310;55.586;12.286;2023-07-02T16:57:51;100183.72;;;22.66
34807;BMP280;18310;55.586;12.286;2023-07-02T17:00:59;100191.75;;;22.52
34807;BMP280;18310;55.586;12.286;2023-07-02T17:04:04;100186.75;;;22.47
34807;BMP280;18310;55.586;12.286;2023-07-02T17:07:07;100185.13;;;22.37
34807;BMP280;18310;55.586;12.286;2023-07-02T17:10:10;100186.28;;;22.26
34807;BMP280;18310;55.586;12.286;2023-07-02T17:13:13;100181.84;;;22.16
34807;BMP280;18310;55.586;12.286;2023-07-02T17:16:16;100193.41;;;22.02
34807;BMP280;18310;55.586;12.286;2023-07-02T17:19:24;100187.34;;;21.95
34807;BMP280;18310;55.586;12.286;2023-07-02T17:22:30;100192.63;;;21.89
34807;BMP280;18310;55.586;12.286;2023-07-02T17:25:34;100194.56;;;21.92
34807;BMP280;18310;55.586;12.286;2023-07-02T17:28:37;100174.16;;;21.86